sensor_id;sensor_type;location;lat;lon;timestamp;P1;durP1;ratioP1;P2;durP2;ratioP2
49980;SDS011;35871;51.594;7.138;2022-12-17T08:07:04;17.02;;;9.95;;
49980;SDS011;35871;51.594;7.138;2022-12-17T08:12:25;24.42;;;13.40;;
49980;SDS011;35871;51.594;7.138;2022-12-17T08:17:44;23.17;;;14.00;;
49980;SDS011;35871;51.594;7.138;2022-12-17T08:23:10;21.02;;;12.55;;
49980;SDS011;35871;51.594;7.138;2022-12-17T08:28:29;20.20;;;12.05;;
49980;SDS011;35871;51.594;7.138;2022-12-17T08:33:49;21.23;;;12.05;;
49980;SDS011;35871;51.594;7.138;2022-12-17T08:39:18;29.63;;;16.23;;
49980;SDS011;35871;51.594;7.138;2022-12-17T08:44:47;17.38;;;10.70;;
49980;SDS011;35871;51.594;7.138;2022-12-17T08:50:07;15.75;;;9.48;;
49980;SDS011;35871;51.594;7.138;2022-12-17T08:55:26;19.02;;;10.82;;
49980;SDS011;35871;51.594;7.138;2022-12-17T09:00:46;15.25;;;9.80;;
49980;SDS011;35871;51.594;7.138;2022-12-17T09:06:15;21.30;;;14.32;;
49980;SDS011;35871;51.594;7.138;2022-12-17T09:11:35;22.77;;;13.73;;
49980;SDS011;35871;51.594;7.138;2022-12-17T09:16:56;24.42;;;14.10;;
49980;SDS011;35871;51.594;7.138;2022-12-17T09:22:16;17.60;;;10.95;;
49980;SDS011;35871;51.594;7.138;2022-12-17T09:27:41;17.10;;;10.52;;
49980;SDS011;35871;51.594;7.138;2022-12-17T09:33:24;19.33;;;11.95;;
49980;SDS011;35871;51.594;7.138;2022-12-17T09:39:11;17.70;;;11.23;;
49980;SDS011;35871;51.594;7.138;2022-12-17T09:50:42;38.70;;;10.73;;
49980;SDS011;35871;51.594;7.138;2022-12-17T09:56:03;25.65;;;9.93;;
49980;SDS011;35871;51.594;7.138;2022-12-17T10:01:24;70.88;;;13.40;;
49980;SDS011;35871;51.594;7.138;2022-12-17T10:06:45;18.63;;;10.50;;
49980;SDS011;35871;51.594;7.138;2022-12-17T10:12:15;20.45;;;10.52;;
49980;SDS011;35871;51.594;7.138;2022-12-17T10:17:38;18.77;;;9.70;;
49980;SDS011;35871;51.594;7.138;2022-12-17T10:22:58;20.38;;;9.30;;
49980;SDS011;35871;51.594;7.138;2022-12-17T10:28:19;17.70;;;9.05;;
49980;SDS011;35871;51.594;7.138;2022-12-17T10:33:39;18.08;;;9.90;;
49980;SDS011;35871;51.594;7.138;2022-12-17T10:38:59;18.58;;;8.25;;
49980;SDS011;35871;51.594;7.138;2022-12-17T10:49:38;19.10;;;11.50;;
49980;SDS011;35871;51.594;7.138;2022-12-17T10:55:00;17.85;;;9.55;;
49980;SDS011;35871;51.594;7.138;2022-12-17T11:00:24;19.83;;;13.25;;
49980;SDS011;35871;51.594;7.138;2022-12-17T11:05:44;15.55;;;9.07;;
49980;SDS011;35871;51.594;7.138;2022-12-17T11:11:05;17.17;;;8.85;;
49980;SDS011;35871;51.594;7.138;2022-12-17T11:16:28;22.08;;;12.48;;
49980;SDS011;35871;51.594;7.138;2022-12-17T11:21:52;16.55;;;10.85;;
49980;SDS011;35871;51.594;7.138;2022-12-17T11:27:21;13.50;;;9.32;;
49980;SDS011;35871;51.594;7.138;2022-12-17T11:43:25;15.00;;;10.02;;
49980;SDS011;35871;51.594;7.138;2022-12-17T11:48:48;14.15;;;8.63;;
49980;SDS011;35871;51.594;7.138;2022-12-17T11:54:15;12.70;;;8.50;;
49980;SDS011;35871;51.594;7.138;2022-12-17T11:59:39;13.20;;;7.78;;
49980;SDS011;35871;51.594;7.138;2022-12-17T12:05:41;13.77;;;8.75;;
49980;SDS011;35871;51.594;7.138;2022-12-17T12:11:24;12.50;;;8.07;;
49980;SDS011;35871;51.594;7.138;2022-12-17T12:16:44;13.30;;;7.80;;
49980;SDS011;35871;51.594;7.138;2022-12-17T12:27:36;11.23;;;7.88;;
49980;SDS011;35871;51.594;7.138;2022-12-17T12:38:39;12.60;;;8.00;;
49980;SDS011;35871;51.594;7.138;2022-12-17T12:44:02;14.82;;;10.40;;
49980;SDS011;35871;51.594;7.138;2022-12-17T12:49:30;12.48;;;7.70;;
49980;SDS011;35871;51.594;7.138;2022-12-17T12:54:53;22.88;;;15.48;;
49980;SDS011;35871;51.594;7.138;2022-12-17T13:05:42;12.48;;;8.27;;
49980;SDS011;35871;51.594;7.138;2022-12-17T13:10:44;16.33;;;9.20;;
49980;SDS011;35871;51.594;7.138;2022-12-17T13:15:56;10.90;;;7.22;;
49980;SDS011;35871;51.594;7.138;2022-12-17T13:21:00;11.70;;;7.45;;
49980;SDS011;35871;51.594;7.138;2022-12-17T13:26:49;16.38;;;11.90;;
49980;SDS011;35871;51.594;7.138;2022-12-17T13:31:26;8.18;;;6.63;;
49980;SDS011;35871;51.594;7.138;2022-12-17T13:36:30;10.15;;;7.25;;
49980;SDS011;35871;51.594;7.138;2022-12-17T13:41:33;11.05;;;7.97;;
49980;SDS011;35871;51.594;7.138;2022-12-17T13:46:40;15.75;;;9.82;;
49980;SDS011;35871;51.594;7.138;2022-12-17T13:51:41;12.27;;;8.80;;
49980;SDS011;35871;51.594;7.138;2022-12-17T13:56:42;10.02;;;7.85;;
49980;SDS011;35871;51.594;7.138;2022-12-17T14:01:44;10.93;;;8.00;;
49980;SDS011;35871;51.594;7.138;2022-12-17T14:06:45;12.20;;;8.15;;
49980;SDS011;35871;51.594;7.138;2022-12-17T14:17:13;9.85;;;7.25;;
49980;SDS011;35871;51.594;7.138;2022-12-17T14:22:18;12.75;;;8.80;;
49980;SDS011;35871;51.594;7.138;2022-12-17T14:27:24;10.10;;;7.18;;
49980;SDS011;35871;51.594;7.138;2022-12-17T14:32:29;10.70;;;7.53;;
49980;SDS011;35871;51.594;7.138;2022-12-17T14:37:32;10.20;;;7.60;;
49980;SDS011;35871;51.594;7.138;2022-12-17T14:47:35;11.75;;;7.90;;
49980;SDS011;35871;51.594;7.138;2022-12-17T14:57:38;9.93;;;7.10;;
49980;SDS011;35871;51.594;7.138;2022-12-17T15:02:39;9.88;;;7.68;;
49980;SDS011;35871;51.594;7.138;2022-12-17T15:07:41;13.13;;;8.70;;
49980;SDS011;35871;51.594;7.138;2022-12-17T15:12:42;13.82;;;9.57;;
49980;SDS011;35871;51.594;7.138;2022-12-17T15:22:45;14.27;;;9.40;;
49980;SDS011;35871;51.594;7.138;2022-12-17T15:27:46;10.88;;;8.13;;
49980;SDS011;35871;51.594;7.138;2022-12-17T15:32:47;9.75;;;7.72;;
49980;SDS011;35871;51.594;7.138;2022-12-17T15:37:48;11.93;;;9.27;;
49980;SDS011;35871;51.594;7.138;2022-12-17T15:42:49;11.73;;;9.02;;
49980;SDS011;35871;51.594;7.138;2022-12-17T15:48:09;12.15;;;7.85;;
49980;SDS011;35871;51.594;7.138;2022-12-17T15:53:10;13.18;;;8.68;;
49980;SDS011;35871;51.594;7.138;2022-12-17T15:58:12;11.07;;;8.10;;
49980;SDS011;35871;51.594;7.138;2022-12-17T16:03:13;10.25;;;8.30;;
49980;SDS011;35871;51.594;7.138;2022-12-17T16:08:14;10.27;;;7.78;;
49980;SDS011;35871;51.594;7.138;2022-12-17T16:18:16;11.32;;;8.55;;
49980;SDS011;35871;51.594;7.138;2022-12-17T16:23:18;11.15;;;8.60;;
49980;SDS011;35871;51.594;7.138;2022-12-17T16:28:19;12.02;;;9.30;;
49980;SDS011;35871;51.594;7.138;2022-12-17T16:33:20;10.68;;;8.18;;
49980;SDS011;35871;51.594;7.138;2022-12-17T16:38:21;11.82;;;9.63;;
49980;SDS011;35871;51.594;7.138;2022-12-17T16:43:26;20.02;;;15.20;;
49980;SDS011;35871;51.594;7.138;2022-12-17T16:48:28;21.88;;;16.15;;
49980;SDS011;35871;51.594;7.138;2022-12-17T16:53:29;23.05;;;16.38;;
49980;SDS011;35871;51.594;7.138;2022-12-17T16:58:30;19.05;;;14.20;;
49980;SDS011;35871;51.594;7.138;2022-12-17T17:03:31;15.57;;;13.20;;
49980;SDS011;35871;51.594;7.138;2022-12-17T17:13:33;16.88;;;13.85;;
49980;SDS011;35871;51.594;7.138;2022-12-17T17:18:35;16.42;;;12.98;;
49980;SDS011;35871;51.594;7.138;2022-12-17T17:23:36;18.70;;;14.63;;
49980;SDS011;35871;51.594;7.138;2022-12-17T17:33:39;16.65;;;13.38;;
49980;SDS011;35871;51.594;7.138;2022-12-17T17:38:42;16.63;;;12.75;;
49980;SDS011;35871;51.594;7.138;2022-12-17T17:43:43;15.98;;;13.00;;
49980;SDS011;35871;51.594;7.138;2022-12-17T17:53:45;24.48;;;19.55;;
49980;SDS011;35871;51.594;7.138;2022-12-17T17:58:48;24.25;;;17.92;;
49980;SDS011;35871;51.594;7.138;2022-12-17T18:03:50;22.42;;;18.00;;
49980;SDS011;35871;51.594;7.138;2022-12-17T18:08:51;20.20;;;16.10;;
49980;SDS011;35871;51.594;7.138;2022-12-17T18:13:53;19.98;;;15.70;;
49980;SDS011;35871;51.594;7.138;2022-12-17T18:23:58;19.75;;;16.23;;
49980;SDS011;35871;51.594;7.138;2022-12-17T18:29:00;23.77;;;17.92;;
49980;SDS011;35871;51.594;7.138;2022-12-17T18:34:02;23.35;;;18.45;;
49980;SDS011;35871;51.594;7.138;2022-12-17T18:39:10;23.63;;;18.48;;
49980;SDS011;35871;51.594;7.138;2022-12-17T18:44:12;33.15;;;22.98;;
49980;SDS011;35871;51.594;7.138;2022-12-17T18:49:15;23.33;;;18.30;;
49980;SDS011;35871;51.594;7.138;2022-12-17T18:54:18;20.00;;;15.90;;
49980;SDS011;35871;51.594;7.138;2022-12-17T18:59:20;24.17;;;18.98;;
49980;SDS011;35871;51.594;7.138;2022-12-17T19:04:22;24.40;;;18.27;;
49980;SDS011;35871;51.594;7.138;2022-12-17T19:09:24;23.25;;;17.77;;
49980;SDS011;35871;51.594;7.138;2022-12-17T19:14:27;23.40;;;19.20;;
49980;SDS011;35871;51.594;7.138;2022-12-17T19:19:28;28.77;;;21.67;;
49980;SDS011;35871;51.594;7.138;2022-12-17T19:24:29;22.58;;;17.80;;
49980;SDS011;35871;51.594;7.138;2022-12-17T19:29:30;28.33;;;20.75;;
49980;SDS011;35871;51.594;7.138;2022-12-17T19:34:31;22.40;;;17.70;;
49980;SDS011;35871;51.594;7.138;2022-12-17T19:39:34;30.60;;;22.83;;
49980;SDS011;35871;51.594;7.138;2022-12-17T19:44:34;22.92;;;17.95;;
49980;SDS011;35871;51.594;7.138;2022-12-17T19:49:35;27.33;;;20.80;;
49980;SDS011;35871;51.594;7.138;2022-12-17T19:54:36;23.83;;;18.13;;
49980;SDS011;35871;51.594;7.138;2022-12-17T19:59:38;27.88;;;19.67;;
49980;SDS011;35871;51.594;7.138;2022-12-17T20:04:39;26.42;;;19.38;;
49980;SDS011;35871;51.594;7.138;2022-12-17T20:09:40;23.17;;;17.45;;
49980;SDS011;35871;51.594;7.138;2022-12-17T20:14:43;26.80;;;19.50;;
49980;SDS011;35871;51.594;7.138;2022-12-17T20:19:44;24.23;;;18.00;;
